Time;durP1;ratioP1;P1;durP2;ratioP2;P2;SDS_P1;SDS_P2;PMS_P1;PMS_P2;Temp;Humidity;BMP_temperature;BMP_pressure;BME280_temperature;BME280_humidity;BME280_pressure;Samples;Min_cycle;Max_cycle;Signal;HPM_P1;HPM_P2
2022/05/10 00:01:52;;;;;;;10.07;3.23;;;;;;;;;;6200750;28;20061;-83
2022/05/10 00:04:52;;;;;;;4.03;2.78;;;;;;;;;;6200989;28;20269;-83
2022/05/10 00:07:52;;;;;;;9.23;4.00;;;;;;;;;;6210227;28;20036;-83
2022/05/10 00:10:54;;;;;;;8.63;2.90;;;;;;;;;;6224296;28;20461;-83
2022/05/10 00:13:54;;;;;;;6.38;3.22;;;;;;;;;;6195500;28;20018;-84
2022/05/10 00:16:55;;;;;;;8.02;3.00;;;;;;;;;;6219619;28;20022;-83
2022/05/10 00:19:55;;;;;;;6.40;2.85;;;;;;;;;;6218372;28;20021;-83
2022/05/10 00:22:55;;;;;;;8.35;3.80;;;;;;;;;;6217426;28;20073;-84
2022/05/10 00:25:56;;;;;;;8.00;3.95;;;;;;;;;;6200822;28;20470;-83
2022/05/10 00:28:56;;;;;;;7.17;3.03;;;;;;;;;;6218244;28;20018;-83
2022/05/10 00:31:56;;;;;;;4.88;2.83;;;;;;;;;;6200597;28;20284;-83
2022/05/10 00:34:56;;;;;;;8.03;2.83;;;;;;;;;;6218418;28;20469;-83
2022/05/10 00:37:58;;;;;;;5.50;3.38;;;;;;;;;;6235002;28;20759;-83
2022/05/10 00:41:04;;;;;;;6.90;2.77;;;;;;;;;;6227325;28;20017;-83
2022/05/10 00:44:26;;;;;;;5.32;2.60;;;;;;;;;;6327254;28;20051;-83
2022/05/10 00:47:26;;;;;;;;;;;;;;;;;;6326997;28;20047;-82
2022/05/10 00:50:31;;;;;;;11.07;3.07;;;;;;;;;;6326652;28;19914;-83
2022/05/10 00:53:38;;;;;;;7.82;3.47;;;;;;;;;;6345018;28;20388;-83
2022/05/10 00:56:38;;;;;;;5.25;2.38;;;;;;;;;;6231437;28;20014;-84
2022/05/10 00:59:57;;;;;;;8.10;2.60;;;;;;;;;;6199149;28;20025;-83
2022/05/10 01:03:00;;;;;;;8.65;3.42;;;;;;;;;;6199362;28;20261;-83
2022/05/10 01:06:10;;;;;;;5.70;2.55;;;;;;;;;;6198901;28;20113;-83
2022/05/10 01:09:24;;;;;;;8.52;2.55;;;;;;;;;;6234517;28;20045;-83
2022/05/10 01:12:33;;;;;;;8.02;2.92;;;;;;;;;;6200173;28;20393;-83
2022/05/10 01:15:34;;;;;;;2.75;1.95;;;;;;;;;;6231928;28;20354;-83
2022/05/10 01:18:35;;;;;;;6.47;2.50;;;;;;;;;;6224746;28;20045;-83
2022/05/10 01:21:47;;;;;;;6.13;2.17;;;;;;;;;;6241806;28;20040;-83
2022/05/10 01:25:02;;;;;;;7.70;2.70;;;;;;;;;;6246871;28;20023;-83
2022/05/10 01:28:02;;;;;;;6.45;2.47;;;;;;;;;;6318969;28;20170;-82
2022/05/10 01:31:06;;;;;;;6.80;2.50;;;;;;;;;;6318719;28;20016;-83
2022/05/10 01:34:09;;;;;;;3.50;1.88;;;;;;;;;;6320655;28;20250;-83
2022/05/10 01:37:12;;;;;;;6.93;4.00;;;;;;;;;;6267848;28;20018;-83
2022/05/10 01:40:22;;;;;;;4.75;2.25;;;;;;;;;;6241573;28;20469;-83
2022/05/10 01:43:26;;;;;;;7.05;2.90;;;;;;;;;;6327947;28;20107;-83
2022/05/10 01:46:28;;;;;;;6.72;2.83;;;;;;;;;;6327300;28;20015;-83
2022/05/10 01:49:29;;;;;;;5.45;2.75;;;;;;;;;;6286461;28;20737;-83
2022/05/10 01:52:29;;;;;;;5.47;2.27;;;;;;;;;;6190776;28;20029;-83
2022/05/10 01:55:29;;;;;;;9.13;2.77;;;;;;;;;;6203809;28;20253;-83
2022/05/10 01:58:31;;;;;;;5.03;2.60;;;;;;;;;;6217177;28;20249;-83
2022/05/10 02:01:32;;;;;;;9.00;2.53;;;;;;;;;;6191375;28;20289;-83
2022/05/10 02:04:35;;;;;;;8.77;3.70;;;;;;;;;;6191199;28;20116;-83
2022/05/10 02:07:35;;;;;;;7.60;2.33;;;;;;;;;;6174751;28;20027;-83
2022/05/10 02:10:42;;;;;;;5.63;2.67;;;;;;;;;;6197986;28;20080;-83
2022/05/10 02:13:46;;;;;;;7.22;2.70;;;;;;;;;;6216177;28;20018;-83
2022/05/10 02:16:58;;;;;;;5.18;2.83;;;;;;;;;;6240993;28;20021;-83
2022/05/10 02:20:08;;;;;;;5.80;2.13;;;;;;;;;;6244823;28;20440;-83
2022/05/10 02:23:11;;;;;;;3.47;1.80;;;;;;;;;;6231478;28;20034;-83
2022/05/10 02:26:15;;;;;;;4.25;2.22;;;;;;;;;;6203750;28;20030;-82
2022/05/10 02:29:18;;;;;;;3.38;1.60;;;;;;;;;;6202280;28;20465;-82
2022/05/10 02:35:45;;;;;;;4.45;1.63;;;;;;;;;;6220539;28;20022;-83
2022/05/10 02:38:45;;;;;;;6.63;2.03;;;;;;;;;;6220300;28;20084;-83
2022/05/10 02:41:46;;;;;;;7.68;3.17;;;;;;;;;;6275375;28;20067;-83
2022/05/10 02:44:46;;;;;;;5.15;2.05;;;;;;;;;;6349130;28;20543;-83
2022/05/10 02:47:47;;;;;;;4.35;2.17;;;;;;;;;;6330808;28;20023;-83
2022/05/10 02:50:47;;;;;;;5.57;3.42;;;;;;;;;;6348551;28;20030;-82
2022/05/10 02:53:48;;;;;;;3.30;1.73;;;;;;;;;;6348475;28;20020;-82
2022/05/10 02:56:49;;;;;;;2.72;1.58;;;;;;;;;;6288015;28;20167;-82
2022/05/10 02:59:49;;;;;;;5.97;2.65;;;;;;;;;;6220215;28;20018;-83
2022/05/10 03:02:52;;;;;;;7.47;2.65;;;;;;;;;;6219564;28;20069;-83
2022/05/10 03:05:53;;;;;;;5.93;2.33;;;;;;;;;;6200871;28;20022;-83
2022/05/10 03:08:53;;;;;;;7.35;2.00;;;;;;;;;;6193808;28;20103;-83
2022/05/10 03:11:54;;;;;;;2.55;1.67;;;;;;;;;;6195314;28;20045;-83
2022/05/10 03:14:54;;;;;;;7.23;1.80;;;;;;;;;;6203611;28;20119;-83
2022/05/10 03:17:54;;;;;;;5.15;1.92;;;;;;;;;;6219638;28;20261;-83
2022/05/10 03:20:54;;;;;;;6.47;1.97;;;;;;;;;;6219429;28;20022;-82
2022/05/10 03:23:55;;;;;;;5.90;1.90;;;;;;;;;;6200408;28;20348;-82
2022/05/10 03:26:55;;;;;;;5.83;1.90;;;;;;;;;;6193595;28;20493;-83
2022/05/10 03:29:55;;;;;;;8.10;2.88;;;;;;;;;;6193740;28;20711;-83
2022/05/10 03:32:56;;;;;;;7.03;2.03;;;;;;;;;;6195090;28;20029;-83
2022/05/10 03:35:56;;;;;;;4.78;2.20;;;;;;;;;;6194656;28;20257;-83
2022/05/10 03:38:56;;;;;;;4.88;1.77;;;;;;;;;;6214545;28;20481;-83
2022/05/10 03:41:57;;;;;;;4.53;2.47;;;;;;;;;;6219548;28;20045;-85
2022/05/10 03:44:57;;;;;;;7.70;2.05;;;;;;;;;;6219450;28;20625;-83
2022/05/10 03:47:57;;;;;;;8.40;2.23;;;;;;;;;;6217961;28;20032;-82
2022/05/10 03:50:57;;;;;;;5.78;2.60;;;;;;;;;;6218640;28;20688;-83
2022/05/10 03:53:58;;;;;;;5.70;2.10;;;;;;;;;;6219299;28;20468;-83
2022/05/10 03:56:59;;;;;;;4.93;1.70;;;;;;;;;;6194745;28;20345;-83
2022/05/10 04:00:00;;;;;;;8.10;2.08;;;;;;;;;;6194506;28;20401;-83
2022/05/10 04:03:00;;;;;;;3.22;2.10;;;;;;;;;;6194455;28;20015;-83
2022/05/10 04:06:01;;;;;;;3.88;2.05;;;;;;;;;;6194810;28;20022;-83
2022/05/10 04:09:01;;;;;;;3.67;2.13;;;;;;;;;;6211204;28;20045;-83
2022/05/10 04:12:02;;;;;;;5.07;2.00;;;;;;;;;;6194414;28;20018;-83
2022/05/10 04:15:02;;;;;;;5.50;2.28;;;;;;;;;;6194659;28;20355;-83
2022/05/10 04:18:03;;;;;;;6.25;2.47;;;;;;;;;;6193311;28;20027;-83
2022/05/10 04:21:03;;;;;;;2.50;1.77;;;;;;;;;;6193575;28;20029;-83
2022/05/10 04:24:03;;;;;;;5.15;2.25;;;;;;;;;;6193642;28;20025;-83
2022/05/10 04:27:04;;;;;;;5.97;1.90;;;;;;;;;;6193969;28;20023;-83
2022/05/10 04:30:04;;;;;;;5.15;2.20;;;;;;;;;;6193751;28;20631;-83
2022/05/10 04:33:05;;;;;;;5.30;2.30;;;;;;;;;;6193743;28;20120;-83
2022/05/10 04:36:05;;;;;;;6.72;2.17;;;;;;;;;;6195225;28;20022;-83
2022/05/10 04:39:06;;;;;;;3.78;1.92;;;;;;;;;;6216840;28;20071;-83
2022/05/10 04:42:06;;;;;;;5.72;2.17;;;;;;;;;;6258419;28;20453;-83
2022/05/10 04:45:06;;;;;;;5.32;2.33;;;;;;;;;;6316172;28;20062;-83
2022/05/10 04:48:07;;;;;;;6.13;1.95;;;;;;;;;;6168163;28;20492;-83
2022/05/10 04:51:07;;;;;;;5.00;2.22;;;;;;;;;;6179164;28;20030;-83
2022/05/10 04:54:08;;;;;;;5.60;1.80;;;;;;;;;;6180937;28;20113;-83
2022/05/10 04:57:08;;;;;;;6.70;2.30;;;;;;;;;;6189619;28;20080;-83
2022/05/10 05:00:10;;;;;;;6.10;2.50;;;;;;;;;;6178658;28;20033;-83
2022/05/10 05:03:10;;;;;;;6.13;2.35;;;;;;;;;;6182339;28;20497;-83
2022/05/10 05:06:11;;;;;;;6.25;3.00;;;;;;;;;;6185616;28;20025;-83
2022/05/10 05:09:11;;;;;;;9.70;2.70;;;;;;;;;;6188700;28;20050;-83
2022/05/10 05:12:11;;;;;;;5.27;2.00;;;;;;;;;;6181422;28;20633;-83
2022/05/10 05:15:12;;;;;;;7.45;2.80;;;;;;;;;;6188279;28;20277;-83
2022/05/10 05:18:12;;;;;;;7.97;2.87;;;;;;;;;;6178586;28;20029;-85
2022/05/10 05:21:12;;;;;;;4.00;2.10;;;;;;;;;;6177628;28;20027;-86
2022/05/10 05:24:13;;;;;;;6.63;2.60;;;;;;;;;;6182696;28;20034;-86
2022/05/10 05:27:14;;;;;;;6.37;2.03;;;;;;;;;;6168829;28;20057;-86
2022/05/10 05:30:14;;;;;;;5.70;2.00;;;;;;;;;;6168649;28;20023;-86
2022/05/10 05:33:14;;;;;;;9.50;2.70;;;;;;;;;;6167097;28;20019;-86
2022/05/10 05:36:15;;;;;;;4.07;2.10;;;;;;;;;;6174677;28;20022;-86
2022/05/10 05:39:15;;;;;;;8.00;2.37;;;;;;;;;;6216679;28;20018;-86
2022/05/10 05:42:17;;;;;;;7.93;3.13;;;;;;;;;;6263870;28;20508;-86
2022/05/10 05:45:19;;;;;;;7.60;2.72;;;;;;;;;;6311789;28;20360;-86
2022/05/10 05:48:20;;;;;;;5.93;2.30;;;;;;;;;;6171634;28;20021;-86
2022/05/10 05:51:20;;;;;;;6.03;2.78;;;;;;;;;;6183289;28;20052;-86
2022/05/10 05:54:20;;;;;;;10.70;2.80;;;;;;;;;;6183540;28;20575;-86
2022/05/10 05:57:21;;;;;;;13.70;3.97;;;;;;;;;;6196463;28;20018;-86
2022/05/10 06:00:22;;;;;;;9.10;2.72;;;;;;;;;;6195975;28;20499;-84
2022/05/10 06:03:22;;;;;;;;;;;;;;;;;;6192870;28;20023;-84
2022/05/10 06:06:23;;;;;;;8.25;3.00;;;;;;;;;;6174844;28;20006;-84
2022/05/10 06:09:23;;;;;;;8.23;2.37;;;;;;;;;;6200647;28;20580;-84
2022/05/10 06:12:23;;;;;;;9.00;2.90;;;;;;;;;;6215835;28;20504;-85
2022/05/10 06:15:23;;;;;;;6.03;2.83;;;;;;;;;;6220496;28;20488;-84
2022/05/10 06:18:24;;;;;;;9.47;3.07;;;;;;;;;;6220405;28;20029;-84
2022/05/10 06:21:24;;;;;;;6.70;2.07;;;;;;;;;;6195156;28;20023;-84
2022/05/10 06:24:24;;;;;;;8.00;3.00;;;;;;;;;;6201952;28;20481;-84
2022/05/10 06:27:24;;;;;;;8.57;3.60;;;;;;;;;;6195650;28;20022;-84
2022/05/10 06:30:25;;;;;;;11.57;2.57;;;;;;;;;;6188736;28;20423;-84
2022/05/10 06:33:25;;;;;;;;;;;;;;;;;;6206260;28;20022;-84
2022/05/10 06:36:25;;;;;;;5.50;2.50;;;;;;;;;;6206251;28;19987;-84
2022/05/10 06:39:26;;;;;;;;;;;;;;;;;;6210467;28;20178;-84
2022/05/10 06:42:26;;;;;;;11.13;3.03;;;;;;;;;;6207654;28;20065;-84
2022/05/10 06:45:26;;;;;;;;;;;;;;;;;;6219422;28;20026;-84
2022/05/10 06:48:26;;;;;;;11.45;3.30;;;;;;;;;;6219558;28;20017;-84
2022/05/10 06:51:27;;;;;;;10.83;3.53;;;;;;;;;;6218231;28;20079;-84
2022/05/10 06:54:29;;;;;;;6.15;2.80;;;;;;;;;;6205332;28;20024;-84
2022/05/10 06:57:29;;;;;;;10.15;3.45;;;;;;;;;;6184698;28;20534;-85
2022/05/10 07:00:31;;;;;;;6.60;2.90;;;;;;;;;;6194969;28;20032;-85
2022/05/10 07:03:32;;;;;;;7.13;3.17;;;;;;;;;;6185516;28;20470;-85
2022/05/10 07:06:33;;;;;;;7.53;3.38;;;;;;;;;;6177595;28;20035;-84
2022/05/10 07:09:33;;;;;;;9.47;3.77;;;;;;;;;;6237882;28;20045;-84
2022/05/10 07:12:33;;;;;;;9.00;2.97;;;;;;;;;;6198453;28;20496;-84
2022/05/10 07:15:34;;;;;;;9.43;3.63;;;;;;;;;;6222138;28;20035;-84
2022/05/10 07:18:35;;;;;;;7.72;3.25;;;;;;;;;;6230989;28;20041;-84
2022/05/10 07:21:35;;;;;;;9.80;3.07;;;;;;;;;;6192490;28;20034;-84
2022/05/10 07:24:35;;;;;;;9.53;3.50;;;;;;;;;;6228311;28;20018;-84
2022/05/10 07:27:35;;;;;;;8.37;3.10;;;;;;;;;;6216883;28;20033;-85
2022/05/10 07:30:36;;;;;;;9.43;3.00;;;;;;;;;;6199822;28;20526;-85
2022/05/10 07:33:36;;;;;;;9.75;3.63;;;;;;;;;;6217758;28;20264;-85
2022/05/10 07:36:37;;;;;;;11.70;3.57;;;;;;;;;;6219277;28;20018;-85
2022/05/10 07:39:37;;;;;;;9.27;3.40;;;;;;;;;;6242951;28;20057;-85
2022/05/10 07:42:38;;;;;;;8.80;3.00;;;;;;;;;;6224402;28;20032;-85
2022/05/10 07:45:40;;;;;;;6.55;3.00;;;;;;;;;;6224874;28;20021;-85
2022/05/10 07:48:40;;;;;;;8.93;2.75;;;;;;;;;;6224298;28;20029;-85
2022/05/10 07:51:40;;;;;;;6.20;2.95;;;;;;;;;;6242482;28;20033;-85
2022/05/10 07:54:40;;;;;;;6.00;2.88;;;;;;;;;;6236327;28;20052;-85
2022/05/10 07:57:43;;;;;;;9.57;3.43;;;;;;;;;;6199925;28;20061;-85
2022/05/10 08:00:44;;;;;;;8.88;2.63;;;;;;;;;;6217292;28;20272;-85
2022/05/10 08:03:44;;;;;;;10.80;3.25;;;;;;;;;;6199980;28;20061;-85
2022/05/10 08:06:46;;;;;;;6.70;2.42;;;;;;;;;;6200064;28;20549;-85
2022/05/10 08:09:46;;;;;;;5.78;2.40;;;;;;;;;;6206159;28;20041;-85
2022/05/10 08:12:46;;;;;;;6.50;2.93;;;;;;;;;;6223806;28;20074;-85
2022/05/10 08:15:47;;;;;;;7.70;2.75;;;;;;;;;;6222892;28;20029;-85
2022/05/10 08:18:48;;;;;;;5.10;2.83;;;;;;;;;;6241743;28;20024;-85
2022/05/10 08:21:49;;;;;;;6.47;2.97;;;;;;;;;;6221609;28;20029;-85
2022/05/10 08:24:49;;;;;;;;;;;;;;;;;;6211624;28;20022;-87
2022/05/10 08:27:49;;;;;;;4.93;2.50;;;;;;;;;;6217763;28;19945;-85
2022/05/10 08:30:49;;;;;;;;;;;;;;;;;;6200116;28;20083;-85
2022/05/10 08:33:49;;;;;;;6.53;2.10;;;;;;;;;;6217449;28;20276;-85
2022/05/10 08:36:50;;;;;;;;;;;;;;;;;;6210274;28;20041;-85
2022/05/10 08:39:50;;;;;;;4.28;2.20;;;;;;;;;;6198290;28;20276;-85
2022/05/10 08:42:50;;;;;;;;;;;;;;;;;;6180541;28;20029;-85
2022/05/10 08:45:52;;;;;;;4.43;2.38;;;;;;;;;;6201714;28;20292;-85
2022/05/10 08:48:55;;;;;;;6.75;2.97;;;;;;;;;;6199797;28;20029;-85
2022/05/10 08:51:56;;;;;;;6.32;2.83;;;;;;;;;;6194156;28;20033;-85
2022/05/10 08:54:56;;;;;;;7.03;2.80;;;;;;;;;;6186374;28;20026;-85
2022/05/10 08:58:02;;;;;;;9.95;2.78;;;;;;;;;;6203195;28;20075;-85
2022/05/10 09:01:07;;;;;;;5.68;2.55;;;;;;;;;;6204900;28;20029;-85
2022/05/10 09:04:14;;;;;;;6.40;2.40;;;;;;;;;;6193747;28;20026;-84
2022/05/10 09:07:28;;;;;;;6.07;2.45;;;;;;;;;;6200251;28;20463;-84
2022/05/10 09:10:45;;;;;;;4.45;2.63;;;;;;;;;;6241066;28;20049;-84
2022/05/10 09:13:46;;;;;;;5.05;2.92;;;;;;;;;;6223635;28;20044;-85
2022/05/10 09:16:46;;;;;;;6.10;3.03;;;;;;;;;;6218361;28;20014;-85
2022/05/10 09:19:46;;;;;;;5.97;3.13;;;;;;;;;;6216932;28;20018;-84
2022/05/10 09:23:05;;;;;;;6.03;2.73;;;;;;;;;;6219233;28;20109;-84
2022/05/10 09:26:06;;;;;;;5.80;2.67;;;;;;;;;;6244130;28;20501;-85
2022/05/10 09:29:06;;;;;;;6.95;2.58;;;;;;;;;;6221898;28;20057;-85
2022/05/10 09:35:48;;;;;;;6.07;3.33;;;;;;;;;;6221729;28;20026;-87
2022/05/10 09:38:50;;;;;;;6.38;2.17;;;;;;;;;;6230654;28;20481;-87
2022/05/10 09:41:53;;;;;;;6.90;2.00;;;;;;;;;;6221629;28;20022;-87
2022/05/10 09:45:02;;;;;;;6.90;2.38;;;;;;;;;;6262811;28;20679;-87
2022/05/10 09:48:08;;;;;;;5.28;2.10;;;;;;;;;;6278347;28;20030;-87
2022/05/10 09:51:24;;;;;;;6.65;3.65;;;;;;;;;;6220878;28;20030;-87
2022/05/10 09:54:44;;;;;;;3.88;2.45;;;;;;;;;;6214629;28;20386;-87
2022/05/10 09:57:46;;;;;;;4.20;2.00;;;;;;;;;;6207625;28;20034;-87
2022/05/10 10:00:55;;;;;;;10.57;3.10;;;;;;;;;;6213063;28;20458;-87
2022/05/10 10:04:11;;;;;;;8.18;2.28;;;;;;;;;;6211312;28;20025;-86
2022/05/10 10:07:18;;;;;;;5.82;2.53;;;;;;;;;;6255790;28;20030;-86
2022/05/10 10:10:22;;;;;;;4.40;2.20;;;;;;;;;;6280334;28;20372;-86
2022/05/10 10:13:28;;;;;;;9.50;3.05;;;;;;;;;;6243807;28;20033;-87
2022/05/10 10:16:48;;;;;;;7.75;2.20;;;;;;;;;;6222747;28;20030;-86
2022/05/10 10:19:50;;;;;;;4.50;1.95;;;;;;;;;;6223636;28;20072;-86
2022/05/10 10:22:52;;;;;;;4.47;2.50;;;;;;;;;;6257290;28;20036;-86
2022/05/10 10:25:57;;;;;;;8.07;2.63;;;;;;;;;;6203945;28;20082;-86
2022/05/10 10:29:16;;;;;;;5.72;2.42;;;;;;;;;;6214038;28;20022;-86
2022/05/10 10:32:19;;;;;;;11.35;4.35;;;;;;;;;;6209041;28;20068;-86
2022/05/10 10:35:38;;;;;;;7.07;2.40;;;;;;;;;;6265466;28;20075;-86
2022/05/10 10:38:41;;;;;;;6.35;2.65;;;;;;;;;;6235643;28;20029;-86
2022/05/10 10:41:48;;;;;;;5.55;2.45;;;;;;;;;;6218996;28;20117;-86
2022/05/10 10:44:53;;;;;;;6.18;2.67;;;;;;;;;;6272586;28;20026;-86
2022/05/10 10:47:53;;;;;;;6.63;3.10;;;;;;;;;;6220194;28;20438;-86
2022/05/10 10:50:54;;;;;;;5.27;2.10;;;;;;;;;;6201474;28;20026;-86
2022/05/10 10:53:55;;;;;;;9.77;3.08;;;;;;;;;;6219248;28;20033;-86
2022/05/10 10:57:05;;;;;;;5.50;2.10;;;;;;;;;;6200355;28;20017;-86
2022/05/10 11:00:09;;;;;;;12.13;3.10;;;;;;;;;;6208177;28;20465;-86
2022/05/10 11:03:12;;;;;;;7.88;2.65;;;;;;;;;;6216687;28;20495;-87
2022/05/10 11:06:41;;;;;;;8.43;2.58;;;;;;;;;;6213611;28;20040;-86
2022/05/10 11:09:45;;;;;;;4.85;2.30;;;;;;;;;;6177219;28;20050;-86
2022/05/10 11:12:56;;;;;;;7.05;2.20;;;;;;;;;;6195905;28;20508;-86
2022/05/10 11:16:15;;;;;;;7.95;2.50;;;;;;;;;;6184760;28;20030;-86
2022/05/10 11:19:33;;;;;;;5.90;2.40;;;;;;;;;;6169838;28;20023;-86
2022/05/10 11:22:36;;;;;;;4.57;2.40;;;;;;;;;;6174130;28;20504;-86
2022/05/10 11:25:42;;;;;;;3.63;2.42;;;;;;;;;;6181892;28;20034;-86
2022/05/10 11:29:02;;;;;;;9.35;2.47;;;;;;;;;;6169776;28;20034;-87
2022/05/10 11:32:09;;;;;;;5.25;2.28;;;;;;;;;;6167010;28;20034;-86
2022/05/10 11:35:12;;;;;;;5.10;2.30;;;;;;;;;;6168344;28;20031;-86
2022/05/10 11:38:32;;;;;;;3.80;2.28;;;;;;;;;;6176242;28;20079;-86
2022/05/10 11:41:56;;;;;;;7.35;2.40;;;;;;;;;;6193149;28;20129;-87
2022/05/10 11:45:15;;;;;;;8.52;2.65;;;;;;;;;;6167778;28;20599;-86
2022/05/10 11:48:16;;;;;;;3.67;2.00;;;;;;;;;;6169402;28;20019;-87
2022/05/10 11:51:38;;;;;;;4.55;1.92;;;;;;;;;;6170056;28;20140;-86
2022/05/10 11:54:50;;;;;;;3.17;2.60;;;;;;;;;;6172605;28;20045;-86
2022/05/10 11:57:56;;;;;;;4.30;2.13;;;;;;;;;;6180242;28;20055;-86
2022/05/10 12:01:00;;;;;;;3.83;2.08;;;;;;;;;;6176989;28;20105;-86
2022/05/10 12:04:00;;;;;;;5.65;2.35;;;;;;;;;;6181693;28;20091;-87
2022/05/10 12:07:19;;;;;;;4.60;2.50;;;;;;;;;;6177750;28;20489;-86
2022/05/10 12:10:22;;;;;;;5.07;2.65;;;;;;;;;;6178698;28;20051;-86
2022/05/10 12:23:49;;;;;;;3.38;2.45;;;;;;;;;;6192097;28;20497;-86
2022/05/10 12:27:02;;;;;;;5.97;2.60;;;;;;;;;;6176992;28;20014;-86
2022/05/10 12:30:05;;;;;;;4.65;2.70;;;;;;;;;;6167401;28;20113;-86
2022/05/10 12:33:24;;;;;;;9.10;2.63;;;;;;;;;;6167637;28;20023;-86
2022/05/10 12:36:35;;;;;;;7.18;2.20;;;;;;;;;;6176240;28;20056;-86
2022/05/10 12:39:36;;;;;;;11.18;3.00;;;;;;;;;;6183267;28;20041;-86
2022/05/10 12:42:36;;;;;;;3.90;1.93;;;;;;;;;;6175390;28;20473;-86
2022/05/10 12:45:36;;;;;;;;;;;;;;;;;;6170350;28;20031;-84
2022/05/10 12:49:01;;;;;;;5.57;2.30;;;;;;;;;;6178290;28;20342;-84
2022/05/10 12:52:13;;;;;;;4.10;2.05;;;;;;;;;;6181990;28;20382;-83
2022/05/10 12:55:18;;;;;;;10.07;3.35;;;;;;;;;;6186351;28;20539;-83
2022/05/10 12:58:21;;;;;;;4.05;2.35;;;;;;;;;;6182848;28;20023;-84
2022/05/10 13:01:24;;;;;;;5.85;1.95;;;;;;;;;;6184578;28;20037;-84
2022/05/10 13:04:30;;;;;;;5.05;2.60;;;;;;;;;;6180637;28;20019;-84
2022/05/10 13:07:33;;;;;;;4.15;2.63;;;;;;;;;;6177775;28;20027;-84
2022/05/10 13:10:34;;;;;;;4.80;2.40;;;;;;;;;;6214964;28;20045;-84
2022/05/10 13:13:37;;;;;;;5.10;1.92;;;;;;;;;;6186292;28;20046;-84
2022/05/10 13:16:43;;;;;;;6.63;2.53;;;;;;;;;;6198255;28;20021;-84
2022/05/10 13:19:44;;;;;;;7.28;2.33;;;;;;;;;;6204895;28;20052;-84
2022/05/10 13:22:53;;;;;;;6.00;2.20;;;;;;;;;;6197109;28;20022;-84
2022/05/10 13:25:53;;;;;;;9.25;2.63;;;;;;;;;;6197863;28;20060;-84
2022/05/10 13:28:55;;;;;;;4.23;2.50;;;;;;;;;;6213063;28;20528;-84
2022/05/10 13:31:55;;;;;;;4.47;2.58;;;;;;;;;;6206940;28;20254;-84
2022/05/10 13:35:01;;;;;;;4.80;2.90;;;;;;;;;;6203052;28;20022;-84
2022/05/10 13:38:06;;;;;;;8.35;2.88;;;;;;;;;;6183353;28;20027;-84
2022/05/10 13:41:09;;;;;;;5.18;2.13;;;;;;;;;;6202742;28;20481;-84
2022/05/10 13:44:13;;;;;;;4.55;2.28;;;;;;;;;;6191369;28;20053;-84
2022/05/10 13:47:23;;;;;;;10.30;2.72;;;;;;;;;;6190851;28;20031;-84
2022/05/10 13:50:25;;;;;;;5.00;2.53;;;;;;;;;;6190870;28;20397;-84
2022/05/10 13:53:28;;;;;;;6.07;2.65;;;;;;;;;;6190835;28;20679;-85
2022/05/10 13:56:39;;;;;;;7.20;2.25;;;;;;;;;;6211481;28;20022;-84
2022/05/10 13:59:39;;;;;;;7.50;2.60;;;;;;;;;;6215437;28;20022;-84
2022/05/10 14:02:39;;;;;;;5.45;2.33;;;;;;;;;;6214856;28;20053;-84
2022/05/10 14:05:40;;;;;;;6.73;2.73;;;;;;;;;;6215590;28;20412;-84
2022/05/10 14:08:43;;;;;;;8.52;2.50;;;;;;;;;;6198299;28;20050;-84
2022/05/10 14:11:43;;;;;;;9.85;2.67;;;;;;;;;;6199676;28;20037;-84
2022/05/10 14:14:45;;;;;;;5.60;2.70;;;;;;;;;;6215928;28;20690;-84
2022/05/10 14:17:49;;;;;;;7.80;2.88;;;;;;;;;;6203890;28;20025;-84
2022/05/10 14:20:51;;;;;;;5.70;2.28;;;;;;;;;;6196405;28;20026;-83
2022/05/10 14:23:53;;;;;;;5.97;2.08;;;;;;;;;;6214721;28;20022;-83
2022/05/10 14:27:12;;;;;;;5.40;2.72;;;;;;;;;;6197474;28;20018;-83
2022/05/10 14:30:21;;;;;;;4.90;2.33;;;;;;;;;;6219200;28;20025;-84
2022/05/10 14:33:39;;;;;;;8.23;2.90;;;;;;;;;;6202537;28;20029;-84
2022/05/10 14:36:41;;;;;;;7.30;2.25;;;;;;;;;;6203410;28;20022;-83
2022/05/10 14:39:41;;;;;;;6.75;2.00;;;;;;;;;;6220675;28;20022;-83
2022/05/10 14:42:52;;;;;;;6.47;2.40;;;;;;;;;;6220217;28;20106;-83
2022/05/10 14:45:53;;;;;;;9.75;3.33;;;;;;;;;;6220491;28;20026;-83
2022/05/10 14:49:05;;;;;;;7.25;3.00;;;;;;;;;;6221077;28;20053;-84
2022/05/10 14:52:22;;;;;;;4.18;2.20;;;;;;;;;;6202399;28;20018;-84
2022/05/10 14:55:33;;;;;;;5.53;2.33;;;;;;;;;;6220655;28;20308;-83
2022/05/10 14:58:40;;;;;;;7.03;2.22;;;;;;;;;;6203462;28;20032;-84
2022/05/10 15:01:41;;;;;;;4.32;2.55;;;;;;;;;;6220814;28;20307;-84
2022/05/10 15:04:41;;;;;;;;;;;;;;;;;;6202841;28;20026;-84
2022/05/10 15:07:43;;;;;;;4.93;2.47;;;;;;;;;;6221004;28;19909;-84
2022/05/10 15:10:46;;;;;;;8.57;3.45;;;;;;;;;;6202599;28;20555;-84
2022/05/10 15:13:47;;;;;;;4.35;2.28;;;;;;;;;;6219876;28;20018;-84
2022/05/10 15:16:47;;;;;;;6.13;2.30;;;;;;;;;;6220166;28;20032;-84
2022/05/10 15:19:47;;;;;;;4.97;2.50;;;;;;;;;;6202490;28;20021;-84
2022/05/10 15:22:48;;;;;;;6.93;2.00;;;;;;;;;;6211095;28;20027;-85
2022/05/10 15:25:51;;;;;;;6.33;2.17;;;;;;;;;;6200805;28;20412;-84
2022/05/10 15:28:51;;;;;;;6.15;2.53;;;;;;;;;;6191236;28;20406;-84
2022/05/10 15:31:52;;;;;;;6.95;2.97;;;;;;;;;;6186852;28;20119;-83
2022/05/10 15:34:52;;;;;;;9.43;2.70;;;;;;;;;;6195182;28;20022;-84
2022/05/10 15:37:53;;;;;;;4.90;2.92;;;;;;;;;;6226274;28;20030;-84
2022/05/10 15:40:53;;;;;;;10.40;3.47;;;;;;;;;;6206876;28;20079;-83
2022/05/10 15:43:53;;;;;;;5.13;2.07;;;;;;;;;;6203719;28;20022;-84
2022/05/10 15:46:54;;;;;;;5.67;3.17;;;;;;;;;;6197635;28;20046;-84
2022/05/10 15:49:55;;;;;;;6.27;2.87;;;;;;;;;;6207096;28;20030;-84
2022/05/10 15:52:55;;;;;;;9.20;3.55;;;;;;;;;;6204210;28;20014;-84
2022/05/10 15:55:56;;;;;;;5.03;2.97;;;;;;;;;;6201709;28;20413;-84
2022/05/10 15:58:57;;;;;;;11.95;2.53;;;;;;;;;;6191377;28;20014;-84
2022/05/10 16:01:57;;;;;;;6.10;2.30;;;;;;;;;;6186224;28;20349;-84
2022/05/10 16:04:58;;;;;;;7.50;2.80;;;;;;;;;;6208914;28;20033;-84
2022/05/10 16:07:59;;;;;;;6.57;2.70;;;;;;;;;;6202318;28;20269;-84
2022/05/10 16:11:00;;;;;;;9.80;3.42;;;;;;;;;;6216176;28;20108;-84
2022/05/10 16:14:01;;;;;;;5.50;2.40;;;;;;;;;;6201438;28;20544;-83
2022/05/10 16:17:01;;;;;;;8.53;3.63;;;;;;;;;;6214107;28;20026;-84
2022/05/10 16:20:03;;;;;;;11.57;3.13;;;;;;;;;;6210500;28;20030;-84
2022/05/10 16:23:04;;;;;;;7.53;2.85;;;;;;;;;;6195930;28;20026;-84
2022/05/10 16:29:44;;;;;;;6.93;2.83;;;;;;;;;;6211855;28;20030;-84
2022/05/10 16:32:45;;;;;;;6.32;2.40;;;;;;;;;;6196142;28;20083;-84
2022/05/10 16:35:45;;;;;;;9.73;3.07;;;;;;;;;;6198471;28;20014;-84
2022/05/10 16:38:45;;;;;;;6.40;3.50;;;;;;;;;;6203990;28;20018;-84
2022/05/10 16:41:46;;;;;;;6.00;2.50;;;;;;;;;;6183216;28;20432;-84
2022/05/10 16:44:46;;;;;;;7.07;3.10;;;;;;;;;;6188210;28;20462;-84
2022/05/10 16:47:47;;;;;;;10.40;2.90;;;;;;;;;;6205800;28;20026;-84
2022/05/10 16:50:54;;;;;;;8.23;2.60;;;;;;;;;;6195074;28;20117;-84
2022/05/10 16:53:54;;;;;;;6.50;2.72;;;;;;;;;;6186812;28;20454;-84
2022/05/10 16:56:56;;;;;;;6.97;2.50;;;;;;;;;;6206558;28;20058;-84
2022/05/10 16:59:57;;;;;;;7.97;2.85;;;;;;;;;;6207220;28;20075;-84
2022/05/10 17:02:57;;;;;;;7.63;2.97;;;;;;;;;;6205294;28;20029;-84
2022/05/10 17:05:59;;;;;;;7.77;2.07;;;;;;;;;;6200555;28;20029;-84
2022/05/10 17:08:59;;;;;;;3.13;2.13;;;;;;;;;;6200764;28;20038;-84
2022/05/10 17:12:01;;;;;;;7.53;3.00;;;;;;;;;;6201866;28;20044;-84
2022/05/10 17:15:02;;;;;;;10.10;3.58;;;;;;;;;;6209763;28;20102;-84
2022/05/10 17:18:03;;;;;;;10.48;3.63;;;;;;;;;;6217682;28;20099;-84
2022/05/10 17:21:03;;;;;;;9.57;3.70;;;;;;;;;;6193248;28;20060;-86
2022/05/10 17:24:03;;;;;;;8.17;3.60;;;;;;;;;;6220365;28;20014;-86
2022/05/10 17:27:06;;;;;;;10.63;4.07;;;;;;;;;;6203713;28;20076;-86
2022/05/10 17:30:06;;;;;;;6.95;3.90;;;;;;;;;;6204797;28;20022;-84
2022/05/10 17:33:07;;;;;;;6.37;3.13;;;;;;;;;;6207126;28;20030;-86
2022/05/10 17:36:08;;;;;;;8.27;3.50;;;;;;;;;;6208576;28;20382;-84
2022/05/10 17:39:08;;;;;;;9.37;3.57;;;;;;;;;;6213050;28;20041;-86
2022/05/10 17:42:09;;;;;;;6.97;3.37;;;;;;;;;;6216709;28;20045;-84
2022/05/10 17:45:10;;;;;;;6.97;3.67;;;;;;;;;;6198795;28;20131;-86
2022/05/10 17:48:10;;;;;;;7.00;3.63;;;;;;;;;;6201861;28;20061;-84
2022/05/10 17:51:12;;;;;;;7.57;3.80;;;;;;;;;;6203213;28;20045;-84
2022/05/10 17:54:12;;;;;;;8.73;4.03;;;;;;;;;;6221017;28;20022;-84
2022/05/10 17:57:12;;;;;;;7.13;3.83;;;;;;;;;;6221180;28;20388;-84
2022/05/10 18:00:19;;;;;;;11.60;3.77;;;;;;;;;;6220987;28;20070;-86
2022/05/10 18:03:20;;;;;;;5.97;3.65;;;;;;;;;;6203147;28;20116;-86
2022/05/10 18:06:20;;;;;;;9.20;4.30;;;;;;;;;;6203144;28;20404;-86
2022/05/10 18:09:20;;;;;;;9.53;3.37;;;;;;;;;;6241656;28;20041;-86
2022/05/10 18:12:21;;;;;;;10.67;3.80;;;;;;;;;;6227392;28;20030;-86
2022/05/10 18:15:21;;;;;;;11.47;5.00;;;;;;;;;;6244814;28;20487;-86
2022/05/10 18:18:22;;;;;;;10.17;3.70;;;;;;;;;;6226837;28;20495;-86
2022/05/10 18:21:23;;;;;;;8.82;3.78;;;;;;;;;;6226634;28;20450;-86
2022/05/10 18:24:23;;;;;;;8.50;4.37;;;;;;;;;;6214030;28;20079;-86
2022/05/10 18:27:23;;;;;;;11.80;4.43;;;;;;;;;;6218022;28;20026;-86
2022/05/10 18:30:24;;;;;;;24.70;9.27;;;;;;;;;;6219288;28;20102;-86
2022/05/10 18:33:24;;;;;;;12.50;5.50;;;;;;;;;;6286099;28;20030;-84
2022/05/10 18:36:25;;;;;;;11.87;4.80;;;;;;;;;;6290663;28;20056;-85
2022/05/10 18:39:25;;;;;;;13.57;5.43;;;;;;;;;;6224001;28;20041;-84
2022/05/10 18:42:25;;;;;;;7.53;3.90;;;;;;;;;;6241672;28;20457;-86